createdAt,value
2019-02-18T00:02:31.339Z,60.10
2019-02-18T00:07:45.678Z,60.00
2019-02-18T00:12:59.782Z,60.00
2019-02-18T00:18:14.327Z,60.00
2019-02-18T00:23:28.611Z,60.00
2019-02-18T00:28:43.116Z,61.10
2019-02-18T00:33:57.524Z,61.10
2019-02-18T00:39:12.216Z,61.20
2019-02-18T00:44:26.936Z,61.10
2019-02-18T00:49:41.589Z,61.10
2019-02-18T00:54:55.911Z,61.00
2019-02-18T01:06:30.482Z,61.10
2019-02-18T01:11:45.297Z,61.00
2019-02-18T01:16:59.795Z,60.90
2019-02-18T01:22:14.252Z,61.00
2019-02-18T01:27:28.970Z,61.10
2019-02-18T01:32:43.793Z,60.90
2019-02-18T01:37:58.412Z,60.90
2019-02-18T01:43:12.437Z,60.90
2019-02-18T01:48:26.986Z,60.90
2019-02-18T01:53:41.805Z,60.90
2019-02-18T01:58:56.820Z,60.90
2019-02-18T02:04:10.798Z,60.80
2019-02-18T02:09:25.404Z,60.90
2019-02-18T02:14:44.049Z,60.80
2019-02-18T02:25:27.558Z,60.70
2019-02-18T02:30:42.033Z,60.60
2019-02-18T02:35:56.294Z,60.60
2019-02-18T02:41:10.968Z,60.60
2019-02-18T02:46:25.548Z,61.10
2019-02-18T02:51:40.468Z,57.40
2019-02-18T02:56:54.804Z,58.90
2019-02-18T03:02:09.273Z,59.80
2019-02-18T03:07:24.059Z,60.50
2019-02-18T03:12:38.006Z,61.20
2019-02-18T03:17:52.318Z,62.80
2019-02-18T03:23:06.875Z,63.20
2019-02-18T03:29:05.752Z,64.30
2019-02-18T03:34:30.097Z,66.00
2019-02-18T03:39:45.055Z,66.60
2019-02-18T03:44:59.182Z,67.20
2019-02-18T03:50:13.438Z,68.80
2019-02-18T03:55:27.960Z,70.30
2019-02-18T04:00:42.340Z,71.30
2019-02-18T04:05:56.648Z,73.00
2019-02-18T04:11:11.084Z,72.80
2019-02-18T04:16:25.796Z,73.80
2019-02-18T04:21:40.355Z,75.30
2019-02-18T04:26:54.535Z,75.90
2019-02-18T04:32:09.031Z,76.40
2019-02-18T04:37:23.530Z,77.20
2019-02-18T04:42:37.846Z,78.30
2019-02-18T04:47:52.373Z,78.30
2019-02-18T04:53:06.922Z,79.60
2019-02-18T04:58:21.492Z,80.40
2019-02-18T05:03:36.149Z,80.70
2019-02-18T05:08:50.938Z,80.50
2019-02-18T05:14:05.109Z,80.60
2019-02-18T05:19:19.443Z,81.10
2019-02-18T05:24:33.764Z,82.10
2019-02-18T05:29:48.537Z,81.50
2019-02-18T05:35:03.160Z,82.00
2019-02-18T05:40:17.759Z,82.50
2019-02-18T05:45:32.411Z,83.20
2019-02-18T05:50:46.863Z,83.80
2019-02-18T05:56:01.301Z,84.40
2019-02-18T06:01:17.262Z,84.60
2019-02-18T06:06:31.637Z,84.90
2019-02-18T06:11:46.379Z,85.80
2019-02-18T06:17:02.747Z,85.80
2019-02-18T06:22:17.082Z,86.30
2019-02-18T06:27:31.623Z,87.00
2019-02-18T06:32:46.036Z,86.80
2019-02-18T06:38:00.338Z,87.50
2019-02-18T06:43:15.167Z,88.20
2019-02-18T06:48:32.246Z,89.10
2019-02-18T06:53:46.784Z,89.00
2019-02-18T06:59:09.928Z,89.50
2019-02-18T07:04:43.527Z,90.00
2019-02-18T07:10:04.238Z,90.30
2019-02-18T07:15:19.779Z,90.20
2019-02-18T07:20:34.188Z,90.50
2019-02-18T07:25:48.845Z,91.10
2019-02-18T07:31:02.866Z,91.50
2019-02-18T07:36:17.243Z,91.90
2019-02-18T07:41:31.642Z,92.40
2019-02-18T07:46:46.094Z,93.00
2019-02-18T07:52:01.040Z,93.30
2019-02-18T07:57:15.857Z,94.00
2019-02-18T08:02:30.417Z,93.40
2019-02-18T08:07:44.894Z,93.00
2019-02-18T08:12:59.586Z,92.80
2019-02-18T08:18:14.148Z,91.10
2019-02-18T08:23:28.560Z,91.70
2019-02-18T08:28:43.231Z,93.10
2019-02-18T08:33:57.695Z,92.90
2019-02-18T08:39:13.336Z,92.30
2019-02-18T08:44:27.971Z,91.80
2019-02-18T08:49:42.431Z,90.20
2019-02-18T08:54:57.214Z,89.60
2019-02-18T09:00:14.660Z,88.70
2019-02-18T09:05:29.471Z,89.10
2019-02-18T09:10:44.093Z,87.60
2019-02-18T09:16:03.562Z,85.60
2019-02-18T09:21:20.265Z,84.50
2019-02-18T09:32:26.263Z,78.30
2019-02-18T09:37:40.881Z,76.50
2019-02-18T09:42:56.809Z,72.30
2019-02-18T09:48:11.978Z,69.90
2019-02-18T09:53:26.513Z,70.50
2019-02-18T09:58:40.894Z,68.40
2019-02-18T10:03:55.351Z,66.20
2019-02-18T10:09:10.070Z,65.20
2019-02-18T10:14:24.745Z,64.80
2019-02-18T10:19:39.494Z,63.90
2019-02-18T10:24:53.753Z,63.60
2019-02-18T10:30:09.786Z,62.40
2019-02-18T10:35:26.421Z,62.30
2019-02-18T10:40:39.993Z,60.90
2019-02-18T10:45:54.841Z,60.70
2019-02-18T10:51:10.297Z,60.10
2019-02-18T10:56:24.603Z,57.30
2019-02-18T11:01:39.008Z,54.00
2019-02-18T11:06:54.425Z,53.90
2019-02-18T11:12:08.809Z,54.20
2019-02-18T11:17:23.151Z,54.10
2019-02-18T11:22:37.786Z,54.00
2019-02-18T11:27:52.610Z,53.40
2019-02-18T11:33:07.511Z,52.90
2019-02-18T11:38:22.251Z,52.50
2019-02-18T11:43:36.657Z,51.00
2019-02-18T11:48:51.157Z,49.70
2019-02-18T11:54:05.371Z,49.60
2019-02-18T11:59:24.328Z,49.40
2019-02-18T12:04:35.880Z,48.60
2019-02-18T12:09:50.592Z,47.30
2019-02-18T12:15:09.410Z,46.50
2019-02-18T12:20:54.797Z,46.10
2019-02-18T12:26:04.077Z,44.40
2019-02-18T12:31:18.433Z,43.40
2019-02-18T12:36:32.788Z,41.70
2019-02-18T12:41:49.014Z,40.70
2019-02-18T12:47:03.602Z,40.10
2019-02-18T12:52:18.098Z,39.80
2019-02-18T12:57:32.633Z,37.50
2019-02-18T13:08:08.072Z,35.60
2019-02-18T13:13:22.783Z,35.20
2019-02-18T13:18:37.534Z,33.20
2019-02-18T13:23:53.486Z,30.10
2019-02-18T13:29:07.901Z,29.10
2019-02-18T13:34:22.478Z,27.80
2019-02-18T13:39:39.531Z,28.30
2019-02-18T13:44:54.330Z,26.90
2019-02-18T13:50:09.838Z,25.20
2019-02-18T13:55:24.539Z,24.70
2019-02-18T14:00:39.097Z,24.60
2019-02-18T14:05:53.286Z,22.00
2019-02-18T14:11:07.837Z,23.10
2019-02-18T14:16:22.127Z,22.70
2019-02-18T14:21:36.404Z,22.60
2019-02-18T14:26:51.683Z,22.50
2019-02-18T14:32:06.144Z,21.80
2019-02-18T14:37:20.340Z,20.30
2019-02-18T14:42:34.831Z,21.50
2019-02-18T14:47:49.507Z,21.50
2019-02-18T14:53:04.386Z,21.20
2019-02-18T14:58:19.067Z,21.80
2019-02-18T15:03:34.206Z,21.30
2019-02-18T15:08:48.673Z,21.90
2019-02-18T15:14:06.262Z,22.70
2019-02-18T15:19:21.473Z,22.70
2019-02-18T15:24:38.095Z,23.60
2019-02-18T15:29:52.315Z,24.30
2019-02-18T15:35:07.979Z,25.30
2019-02-18T15:40:24.882Z,25.40
2019-02-18T15:45:39.825Z,26.10
2019-02-18T15:50:54.450Z,26.60
2019-02-18T15:56:09.773Z,27.40
2019-02-18T16:01:24.725Z,27.90
2019-02-18T16:06:40.197Z,28.40
2019-02-18T16:11:56.144Z,28.90
2019-02-18T16:17:10.953Z,29.30
2019-02-18T16:22:25.493Z,29.40
2019-02-18T16:27:40.130Z,30.00
2019-02-18T16:32:54.493Z,30.60
2019-02-18T16:38:08.913Z,31.30
2019-02-18T16:43:23.881Z,32.20
2019-02-18T16:48:38.403Z,32.80
2019-02-18T16:53:53.126Z,33.50
2019-02-18T16:59:08.748Z,34.80
2019-02-18T17:04:23.292Z,34.60
2019-02-18T17:09:38.038Z,35.00
2019-02-18T17:14:52.241Z,35.60
2019-02-18T17:20:07.296Z,36.30
2019-02-18T17:25:22.066Z,37.20
2019-02-18T17:30:37.125Z,38.00
2019-02-18T17:36:13.760Z,37.90
2019-02-18T17:41:29.338Z,38.10
2019-02-18T17:46:43.872Z,38.30
2019-02-18T17:51:58.870Z,39.00
2019-02-18T17:57:13.505Z,39.60
2019-02-18T18:02:28.206Z,39.90
2019-02-18T18:07:42.823Z,40.60
2019-02-18T18:12:57.655Z,41.40
2019-02-18T18:18:12.001Z,41.50
2019-02-18T18:23:27.325Z,41.50
2019-02-18T18:28:42.222Z,41.40
2019-02-18T18:34:02.202Z,41.80
2019-02-18T18:39:17.527Z,42.00
2019-02-18T18:44:32.565Z,42.40
2019-02-18T18:49:48.031Z,41.90
2019-02-18T19:00:26.116Z,42.80
2019-02-18T19:05:41.042Z,42.60
2019-02-18T19:10:56.121Z,42.90
2019-02-18T19:16:10.975Z,42.70
2019-02-18T19:21:25.522Z,42.90
2019-02-18T19:26:40.088Z,43.10
2019-02-18T19:31:54.537Z,43.90
2019-02-18T19:37:09.454Z,44.30
2019-02-18T19:42:24.869Z,44.80
2019-02-18T19:47:39.609Z,44.90
2019-02-18T19:52:54.293Z,44.90
2019-02-18T19:58:08.561Z,45.20
2019-02-18T20:03:23.100Z,45.60
2019-02-18T20:08:37.764Z,46.10
2019-02-18T20:13:58.764Z,47.30
2019-02-18T20:19:09.021Z,48.20
2019-02-18T20:24:23.824Z,48.40
2019-02-18T20:29:38.255Z,48.70
2019-02-18T20:34:52.876Z,49.10
2019-02-18T20:40:07.455Z,49.30
2019-02-18T20:45:25.035Z,49.50
2019-02-18T20:50:40.436Z,50.60
2019-02-18T20:55:55.179Z,50.60
2019-02-18T21:01:09.806Z,50.90
2019-02-18T21:06:24.485Z,51.00
2019-02-18T21:11:39.008Z,51.40
2019-02-18T21:16:54.473Z,51.30
2019-02-18T21:22:09.590Z,51.70
2019-02-18T21:27:24.231Z,51.90
2019-02-18T21:32:39.986Z,52.00
2019-02-18T21:37:54.684Z,52.20
2019-02-18T21:43:09.021Z,52.60
2019-02-18T21:48:23.544Z,52.70
2019-02-18T21:53:38.404Z,53.20
2019-02-18T21:58:53.372Z,53.70
2019-02-18T22:04:09.449Z,53.70
2019-02-18T22:09:23.953Z,54.00
2019-02-18T22:14:38.535Z,54.50
2019-02-18T22:19:53.358Z,54.90
2019-02-18T22:25:13.655Z,55.10
2019-02-18T22:30:28.229Z,55.60
2019-02-18T22:35:43.796Z,56.30
2019-02-18T22:40:58.481Z,57.20
2019-02-18T22:46:13.263Z,57.50
2019-02-18T22:51:28.022Z,57.90
2019-02-18T22:56:42.394Z,58.90
2019-02-18T23:01:57.377Z,58.90
2019-02-18T23:07:14.448Z,59.00
2019-02-18T23:12:29.105Z,59.40
2019-02-18T23:17:43.993Z,59.50
2019-02-18T23:22:59.108Z,60.40
2019-02-18T23:28:13.911Z,60.80
2019-02-18T23:33:28.758Z,62.00
2019-02-18T23:38:43.362Z,62.40
2019-02-18T23:43:57.999Z,62.80
2019-02-18T23:49:12.493Z,63.10
2019-02-18T23:54:27.239Z,64.30
2019-02-18T23:59:41.851Z,65.10
